PILOTS ONLINE: 203    ATC ONLINE: 24

KNKT

Cherry Point MCAS /Cunningham Field/

Location

City Cherry Point
Country  United States
Latitude 34° 54' 3" N
Longitude 76° 52' 50" W
Elevation 29 ft
Type Medium Airport

Map

Weather

METAR
2014/09/02 03:54
KNKT 020354Z 22005KT 10SM SCT200 26/24 A3009 RMK AO2 SLP187 T02560239 
TAF
2014/09/02 03:07
TAF KNKT 0203/0303 VRB05KT 9999 FEW030 SCT080 QNH3005INS 
     FM020900 VRB05KT 8000 BR FEW100 QNH3008INS 
      BECMG 0212/0214 21008KT 9999 NSW SCT080 QNH3004INS 
     FM021600 24010KT 9999 FEW030 SCT100 QNH3001INS 
      BECMG 0218/0220 19008KT 9999 VCSH SCT020 SCT050 QNH2999INS T23/0209Z T33/0218Z

Runways

05L/23R 7553 ft / 200 ft
05R/23L 8188 ft / 196 ft
14L/32R 8984 ft / 200 ft
14R/32L 8399 ft / 200 ft

Outbound flights

Callsign Flying to Pilot ATD/STD ETA Aircraft

Inbound flights

Callsign Flying from Pilot ATD ETA Aircraft